Eddiceton, Mississippi
Current Conditions -  °F | °C
As of 2:15 PM on Sunday 23 Nov 2014 (Local Time) from K1R7 Reporting Station
Broken Clouds Broken Clouds  
Wind Chill: 70°   Ceiling: 3500
Heat Index: 70°   Visibility: 9mi
Dew Point: 59°   Wind: 15mph
Humidity: 68%   Direction: 210°SSW
Pressure: 29.55"   Gusts: 26mph
Location:  31.5295°N, 90.7634°W
Report Text: K1R7 232015Z AUTO 21013G23KT 9SM SCT026 BKN035 BKN041 21/15 A2955 RMK AO2
Loading
Personal Weather Stations






























Interactive Weather Map New forecast layout! Learn more

10-Day Weather Forecast

Advertisements
Track Severe Weather on mobile